sensor_id;sensor_type;location;lat;lon;timestamp;pressure;altitude;pressure_sealevel;temperature;humidity
46379;BME280;32084;42.254;22.744;2023-03-16T00:00:52;94270.06;;;6.76;68.79
46379;BME280;32084;42.254;22.744;2023-03-16T00:03:19;94269.88;;;6.70;68.17
46379;BME280;32084;42.254;22.744;2023-03-16T00:05:45;94270.31;;;6.57;67.88
46379;BME280;32084;42.254;22.744;2023-03-16T00:08:11;94269.00;;;6.61;67.65
46379;BME280;32084;42.254;22.744;2023-03-16T00:10:37;94266.66;;;6.58;68.02
46379;BME280;32084;42.254;22.744;2023-03-16T00:13:04;94265.63;;;6.51;67.88
46379;BME280;32084;42.254;22.744;2023-03-16T00:15:30;94275.94;;;6.54;67.01
46379;BME280;32084;42.254;22.744;2023-03-16T00:17:56;94278.13;;;6.58;66.90
46379;BME280;32084;42.254;22.744;2023-03-16T00:20:22;94278.94;;;6.59;66.95
46379;BME280;32084;42.254;22.744;2023-03-16T00:22:48;94282.16;;;6.71;66.49
46379;BME280;32084;42.254;22.744;2023-03-16T00:25:14;94287.31;;;6.72;66.69
46379;BME280;32084;42.254;22.744;2023-03-16T00:27:40;94282.13;;;6.62;67.29
46379;BME280;32084;42.254;22.744;2023-03-16T00:30:06;94287.56;;;6.53;67.79
46379;BME280;32084;42.254;22.744;2023-03-16T00:32:34;94287.75;;;6.59;67.34
46379;BME280;32084;42.254;22.744;2023-03-16T00:35:00;94289.88;;;6.56;67.80
46379;BME280;32084;42.254;22.744;2023-03-16T00:37:27;94292.22;;;6.59;68.01
46379;BME280;32084;42.254;22.744;2023-03-16T00:39:53;94298.66;;;6.56;67.83
46379;BME280;32084;42.254;22.744;2023-03-16T00:42:23;94298.97;;;6.45;67.97
46379;BME280;32084;42.254;22.744;2023-03-16T00:44:55;94293.44;;;6.38;68.12
46379;BME280;32084;42.254;22.744;2023-03-16T00:47:23;94304.34;;;6.35;66.60
46379;BME280;32084;42.254;22.744;2023-03-16T00:49:49;94307.59;;;6.47;66.76
46379;BME280;32084;42.254;22.744;2023-03-16T00:52:15;94303.34;;;6.28;67.39
46379;BME280;32084;42.254;22.744;2023-03-16T00:54:41;94310.00;;;6.32;67.02
46379;BME280;32084;42.254;22.744;2023-03-16T00:57:08;94310.53;;;6.18;67.73
46379;BME280;32084;42.254;22.744;2023-03-16T00:59:34;94316.22;;;6.23;67.64
46379;BME280;32084;42.254;22.744;2023-03-16T01:02:04;94311.97;;;6.30;67.36
46379;BME280;32084;42.254;22.744;2023-03-16T01:04:30;94312.28;;;6.27;67.86
46379;BME280;32084;42.254;22.744;2023-03-16T01:06:57;94321.59;;;6.31;68.43
46379;BME280;32084;42.254;22.744;2023-03-16T01:09:23;94315.59;;;6.29;69.00
46379;BME280;32084;42.254;22.744;2023-03-16T01:11:49;94319.25;;;6.28;69.70
46379;BME280;32084;42.254;22.744;2023-03-16T01:14:19;94316.97;;;6.33;69.42
46379;BME280;32084;42.254;22.744;2023-03-16T01:16:45;94327.28;;;6.36;69.99
46379;BME280;32084;42.254;22.744;2023-03-16T01:19:14;94321.13;;;6.36;70.79
46379;BME280;32084;42.254;22.744;2023-03-16T01:21:40;94324.66;;;6.44;70.68
46379;BME280;32084;42.254;22.744;2023-03-16T01:24:07;94323.03;;;6.25;72.58
46379;BME280;32084;42.254;22.744;2023-03-16T01:26:33;94331.91;;;6.34;71.82
46379;BME280;32084;42.254;22.744;2023-03-16T01:29:00;94324.19;;;6.23;72.88
46379;BME280;32084;42.254;22.744;2023-03-16T01:31:27;94325.69;;;6.25;72.67
46379;BME280;32084;42.254;22.744;2023-03-16T01:33:54;94324.56;;;6.28;71.90
46379;BME280;32084;42.254;22.744;2023-03-16T01:36:20;94325.34;;;6.20;72.13
46379;BME280;32084;42.254;22.744;2023-03-16T01:38:46;94332.03;;;6.06;73.43
46379;BME280;32084;42.254;22.744;2023-03-16T01:41:12;94335.88;;;5.94;75.55
46379;BME280;32084;42.254;22.744;2023-03-16T01:43:39;94334.06;;;5.95;75.14
46379;BME280;32084;42.254;22.744;2023-03-16T01:48:36;94337.47;;;6.05;74.78
46379;BME280;32084;42.254;22.744;2023-03-16T01:51:09;94342.72;;;5.79;75.26
46379;BME280;32084;42.254;22.744;2023-03-16T01:53:37;94343.41;;;5.81;75.52
46379;BME280;32084;42.254;22.744;2023-03-16T01:56:04;94345.13;;;5.72;75.87
46379;BME280;32084;42.254;22.744;2023-03-16T01:58:33;94342.75;;;5.69;75.47
46379;BME280;32084;42.254;22.744;2023-03-16T02:01:00;94350.34;;;5.64;74.04
46379;BME280;32084;42.254;22.744;2023-03-16T02:03:26;94350.78;;;5.59;71.02
46379;BME280;32084;42.254;22.744;2023-03-16T02:05:57;94360.28;;;5.62;70.04
46379;BME280;32084;42.254;22.744;2023-03-16T02:08:24;94362.72;;;5.73;68.28
46379;BME280;32084;42.254;22.744;2023-03-16T02:10:50;94364.63;;;5.81;68.28
46379;BME280;32084;42.254;22.744;2023-03-16T02:13:20;94368.56;;;5.77;67.14
46379;BME280;32084;42.254;22.744;2023-03-16T02:15:46;94364.69;;;5.71;66.93
46379;BME280;32084;42.254;22.744;2023-03-16T02:18:12;94370.00;;;5.71;67.11
46379;BME280;32084;42.254;22.744;2023-03-16T02:20:46;94368.84;;;5.74;67.55
46379;BME280;32084;42.254;22.744;2023-03-16T02:23:15;94373.75;;;5.68;66.87
46379;BME280;32084;42.254;22.744;2023-03-16T02:30:43;94378.72;;;5.63;67.54
46379;BME280;32084;42.254;22.744;2023-03-16T02:33:10;94389.19;;;5.55;67.75
46379;BME280;32084;42.254;22.744;2023-03-16T02:35:36;94393.53;;;5.56;67.48
46379;BME280;32084;42.254;22.744;2023-03-16T02:38:02;94385.59;;;5.56;67.43
46379;BME280;32084;42.254;22.744;2023-03-16T02:40:29;94388.22;;;5.56;67.25
46379;BME280;32084;42.254;22.744;2023-03-16T02:43:29;94392.25;;;5.60;67.32
46379;BME280;32084;42.254;22.744;2023-03-16T02:45:52;94394.28;;;5.48;69.08
46379;BME280;32084;42.254;22.744;2023-03-16T02:48:28;94385.72;;;5.55;70.07
46379;BME280;32084;42.254;22.744;2023-03-16T02:50:57;94384.50;;;5.49;69.47
46379;BME280;32084;42.254;22.744;2023-03-16T02:53:23;94399.53;;;5.58;68.44
46379;BME280;32084;42.254;22.744;2023-03-16T02:55:49;94394.38;;;5.57;68.47
46379;BME280;32084;42.254;22.744;2023-03-16T02:58:15;94392.00;;;5.54;68.23
46379;BME280;32084;42.254;22.744;2023-03-16T03:00:41;94400.63;;;5.56;68.47
46379;BME280;32084;42.254;22.744;2023-03-16T03:03:08;94401.00;;;5.43;69.95
46379;BME280;32084;42.254;22.744;2023-03-16T03:05:34;94414.63;;;5.48;69.21
46379;BME280;32084;42.254;22.744;2023-03-16T03:08:01;94403.81;;;5.41;68.69
46379;BME280;32084;42.254;22.744;2023-03-16T03:10:27;94409.25;;;5.40;68.04
46379;BME280;32084;42.254;22.744;2023-03-16T03:12:53;94410.34;;;5.47;67.35
46379;BME280;32084;42.254;22.744;2023-03-16T03:15:19;94418.84;;;5.51;66.83
46379;BME280;32084;42.254;22.744;2023-03-16T03:17:46;94418.97;;;5.49;66.66
46379;BME280;32084;42.254;22.744;2023-03-16T03:20:12;94429.03;;;5.45;67.06
46379;BME280;32084;42.254;22.744;2023-03-16T03:22:41;94432.78;;;5.53;66.45
46379;BME280;32084;42.254;22.744;2023-03-16T03:25:07;94431.53;;;5.47;66.02
46379;BME280;32084;42.254;22.744;2023-03-16T03:27:33;94432.28;;;5.39;65.49
46379;BME280;32084;42.254;22.744;2023-03-16T03:30:00;94442.34;;;5.36;65.49
46379;BME280;32084;42.254;22.744;2023-03-16T03:32:26;94444.72;;;5.29;64.07
46379;BME280;32084;42.254;22.744;2023-03-16T03:34:52;94447.56;;;5.27;64.13
46379;BME280;32084;42.254;22.744;2023-03-16T03:37:18;94446.16;;;5.23;62.84
46379;BME280;32084;42.254;22.744;2023-03-16T03:39:44;94445.78;;;5.18;63.38
46379;BME280;32084;42.254;22.744;2023-03-16T03:42:10;94452.63;;;5.11;62.92
46379;BME280;32084;42.254;22.744;2023-03-16T03:44:36;94445.81;;;5.08;63.07
46379;BME280;32084;42.254;22.744;2023-03-16T03:47:02;94450.66;;;5.13;63.36
46379;BME280;32084;42.254;22.744;2023-03-16T03:49:28;94456.25;;;5.10;62.80
46379;BME280;32084;42.254;22.744;2023-03-16T03:51:54;94453.16;;;5.15;63.60
46379;BME280;32084;42.254;22.744;2023-03-16T03:54:21;94457.38;;;5.07;63.61
46379;BME280;32084;42.254;22.744;2023-03-16T03:56:47;94455.72;;;4.97;64.81
46379;BME280;32084;42.254;22.744;2023-03-16T03:59:13;94465.06;;;5.01;64.73
46379;BME280;32084;42.254;22.744;2023-03-16T04:01:39;94466.59;;;5.03;65.11
46379;BME280;32084;42.254;22.744;2023-03-16T04:04:05;94469.47;;;5.10;64.65
46379;BME280;32084;42.254;22.744;2023-03-16T04:06:31;94478.44;;;5.09;64.53
46379;BME280;32084;42.254;22.744;2023-03-16T04:08:57;94477.22;;;4.94;65.60
46379;BME280;32084;42.254;22.744;2023-03-16T04:11:23;94482.25;;;4.87;65.88
46379;BME280;32084;42.254;22.744;2023-03-16T04:13:50;94480.72;;;4.84;66.05
46379;BME280;32084;42.254;22.744;2023-03-16T04:16:18;94481.28;;;4.88;65.93
46379;BME280;32084;42.254;22.744;2023-03-16T04:18:44;94495.22;;;4.80;66.00
46379;BME280;32084;42.254;22.744;2023-03-16T04:21:15;94497.03;;;4.80;66.13
46379;BME280;32084;42.254;22.744;2023-03-16T04:23:42;94493.56;;;4.79;66.33
46379;BME280;32084;42.254;22.744;2023-03-16T04:26:08;94500.13;;;4.65;66.51
46379;BME280;32084;42.254;22.744;2023-03-16T04:28:34;94499.84;;;4.59;67.29
46379;BME280;32084;42.254;22.744;2023-03-16T04:31:01;94506.25;;;4.66;66.83
46379;BME280;32084;42.254;22.744;2023-03-16T04:33:28;94509.88;;;4.65;67.42
46379;BME280;32084;42.254;22.744;2023-03-16T04:35:53;94519.94;;;4.61;67.42
46379;BME280;32084;42.254;22.744;2023-03-16T04:38:20;94521.16;;;4.47;68.03
46379;BME280;32084;42.254;22.744;2023-03-16T04:40:46;94524.09;;;4.44;67.74
46379;BME280;32084;42.254;22.744;2023-03-16T04:43:12;94535.38;;;4.56;68.25
46379;BME280;32084;42.254;22.744;2023-03-16T04:45:38;94527.72;;;4.53;68.18
46379;BME280;32084;42.254;22.744;2023-03-16T04:48:04;94534.13;;;4.41;68.94
46379;BME280;32084;42.254;22.744;2023-03-16T04:50:30;94541.38;;;4.29;69.00
46379;BME280;32084;42.254;22.744;2023-03-16T04:52:56;94541.94;;;4.33;69.55
46379;BME280;32084;42.254;22.744;2023-03-16T04:55:22;94547.22;;;4.33;69.69
46379;BME280;32084;42.254;22.744;2023-03-16T04:57:49;94542.06;;;4.31;69.96
46379;BME280;32084;42.254;22.744;2023-03-16T05:00:15;94547.19;;;4.23;69.94
46379;BME280;32084;42.254;22.744;2023-03-16T05:02:48;94552.78;;;4.20;71.01
46379;BME280;32084;42.254;22.744;2023-03-16T05:05:14;94549.59;;;4.36;69.87
46379;BME280;32084;42.254;22.744;2023-03-16T05:07:41;94555.19;;;4.42;69.25
46379;BME280;32084;42.254;22.744;2023-03-16T05:10:08;94553.63;;;4.30;69.49
46379;BME280;32084;42.254;22.744;2023-03-16T05:12:34;94560.03;;;4.37;68.86
46379;BME280;32084;42.254;22.744;2023-03-16T05:15:00;94561.44;;;4.32;69.91
46379;BME280;32084;42.254;22.744;2023-03-16T05:17:26;94562.25;;;4.42;69.72
46379;BME280;32084;42.254;22.744;2023-03-16T05:19:52;94567.28;;;4.45;69.44
46379;BME280;32084;42.254;22.744;2023-03-16T05:22:18;94568.53;;;4.41;69.18
46379;BME280;32084;42.254;22.744;2023-03-16T05:28:06;94576.06;;;4.45;70.69
46379;BME280;32084;42.254;22.744;2023-03-16T05:30:33;94571.75;;;4.74;69.49
46379;BME280;32084;42.254;22.744;2023-03-16T05:32:59;94575.94;;;4.76;69.13
46379;BME280;32084;42.254;22.744;2023-03-16T05:35:25;94576.91;;;4.85;68.93
46379;BME280;32084;42.254;22.744;2023-03-16T05:37:52;94577.03;;;5.03;67.85
46379;BME280;32084;42.254;22.744;2023-03-16T05:40:18;94571.34;;;4.88;67.76
46379;BME280;32084;42.254;22.744;2023-03-16T05:42:48;94586.53;;;4.86;67.83
46379;BME280;32084;42.254;22.744;2023-03-16T05:45:15;94588.34;;;4.85;67.18
46379;BME280;32084;42.254;22.744;2023-03-16T05:47:42;94591.00;;;4.95;67.14
46379;BME280;32084;42.254;22.744;2023-03-16T05:50:09;94590.00;;;5.06;65.89
46379;BME280;32084;42.254;22.744;2023-03-16T05:52:36;94594.06;;;4.91;65.96
46379;BME280;32084;42.254;22.744;2023-03-16T05:55:04;94588.63;;;4.92;66.50
46379;BME280;32084;42.254;22.744;2023-03-16T05:57:31;94593.47;;;4.97;66.24
46379;BME280;32084;42.254;22.744;2023-03-16T05:59:59;94600.59;;;4.96;65.89
46379;BME280;32084;42.254;22.744;2023-03-16T06:02:25;94607.16;;;4.92;66.35
46379;BME280;32084;42.254;22.744;2023-03-16T06:04:51;94605.47;;;4.91;66.49
46379;BME280;32084;42.254;22.744;2023-03-16T06:07:17;94608.56;;;4.96;65.29
46379;BME280;32084;42.254;22.744;2023-03-16T06:09:43;94613.28;;;4.93;65.06
46379;BME280;32084;42.254;22.744;2023-03-16T06:12:09;94616.22;;;5.09;64.72
46379;BME280;32084;42.254;22.744;2023-03-16T06:14:36;94615.81;;;5.04;63.84
46379;BME280;32084;42.254;22.744;2023-03-16T06:17:02;94620.97;;;5.05;64.01
46379;BME280;32084;42.254;22.744;2023-03-16T06:19:28;94629.06;;;4.94;62.87
46379;BME280;32084;42.254;22.744;2023-03-16T06:21:54;94637.81;;;4.95;62.60
46379;BME280;32084;42.254;22.744;2023-03-16T06:24:20;94633.66;;;5.02;62.76
46379;BME280;32084;42.254;22.744;2023-03-16T06:26:46;94638.00;;;5.03;62.29
46379;BME280;32084;42.254;22.744;2023-03-16T06:29:12;94636.31;;;5.02;62.74
46379;BME280;32084;42.254;22.744;2023-03-16T06:31:38;94640.88;;;5.19;62.25
46379;BME280;32084;42.254;22.744;2023-03-16T06:34:04;94650.25;;;5.04;62.78
46379;BME280;32084;42.254;22.744;2023-03-16T06:36:30;94651.94;;;5.15;63.00
46379;BME280;32084;42.254;22.744;2023-03-16T06:38:56;94657.09;;;5.16;62.82
46379;BME280;32084;42.254;22.744;2023-03-16T06:41:22;94660.31;;;5.20;62.29
46379;BME280;32084;42.254;22.744;2023-03-16T06:43:48;94660.69;;;5.15;63.48
46379;BME280;32084;42.254;22.744;2023-03-16T06:46:14;94665.56;;;5.10;63.16
46379;BME280;32084;42.254;22.744;2023-03-16T06:48:40;94675.47;;;5.18;63.18
46379;BME280;32084;42.254;22.744;2023-03-16T06:51:07;94680.09;;;5.25;63.00
46379;BME280;32084;42.254;22.744;2023-03-16T06:53:33;94681.22;;;5.13;63.31
46379;BME280;32084;42.254;22.744;2023-03-16T06:55:59;94682.59;;;5.07;63.10
46379;BME280;32084;42.254;22.744;2023-03-16T06:58:25;94700.88;;;5.01;64.14
46379;BME280;32084;42.254;22.744;2023-03-16T07:00:51;94699.34;;;5.08;64.25
46379;BME280;32084;42.254;22.744;2023-03-16T07:03:18;94705.06;;;5.03;65.09
46379;BME280;32084;42.254;22.744;2023-03-16T07:05:46;94708.84;;;5.11;65.22
46379;BME280;32084;42.254;22.744;2023-03-16T07:08:14;94716.66;;;5.32;65.49
46379;BME280;32084;42.254;22.744;2023-03-16T07:10:42;94719.28;;;5.51;64.92
46379;BME280;32084;42.254;22.744;2023-03-16T07:13:10;94721.25;;;5.49;64.70
46379;BME280;32084;42.254;22.744;2023-03-16T07:15:37;94708.09;;;5.77;64.36
46379;BME280;32084;42.254;22.744;2023-03-16T07:18:04;94714.63;;;6.02;63.46
46379;BME280;32084;42.254;22.744;2023-03-16T07:20:32;94719.31;;;6.18;62.65
46379;BME280;32084;42.254;22.744;2023-03-16T07:23:02;94710.63;;;6.25;61.86
46379;BME280;32084;42.254;22.744;2023-03-16T07:25:31;94716.25;;;6.22;61.85
46379;BME280;32084;42.254;22.744;2023-03-16T07:27:58;94714.69;;;6.20;62.41
46379;BME280;32084;42.254;22.744;2023-03-16T07:30:26;94723.34;;;6.22;61.92
46379;BME280;32084;42.254;22.744;2023-03-16T07:32:55;94726.53;;;6.35;61.53
46379;BME280;32084;42.254;22.744;2023-03-16T07:35:23;94725.00;;;6.33;62.15
46379;BME280;32084;42.254;22.744;2023-03-16T07:37:52;94726.38;;;6.37;62.07
46379;BME280;32084;42.254;22.744;2023-03-16T07:40:22;94729.66;;;6.21;60.97
46379;BME280;32084;42.254;22.744;2023-03-16T07:42:50;94723.50;;;6.30;61.38
46379;BME280;32084;42.254;22.744;2023-03-16T07:45:18;94722.81;;;6.28;62.10
46379;BME280;32084;42.254;22.744;2023-03-16T07:47:46;94724.16;;;6.32;61.09
46379;BME280;32084;42.254;22.744;2023-03-16T07:50:14;94730.59;;;6.39;60.66
46379;BME280;32084;42.254;22.744;2023-03-16T07:52:42;94730.44;;;6.31;59.83
46379;BME280;32084;42.254;22.744;2023-03-16T07:55:10;94728.50;;;6.33;59.74
46379;BME280;32084;42.254;22.744;2023-03-16T07:57:41;94740.03;;;6.52;59.79
46379;BME280;32084;42.254;22.744;2023-03-16T08:00:14;94732.75;;;6.54;59.43
46379;BME280;32084;42.254;22.744;2023-03-16T08:02:42;94730.91;;;6.64;58.70
46379;BME280;32084;42.254;22.744;2023-03-16T08:05:11;94733.31;;;6.85;58.53
46379;BME280;32084;42.254;22.744;2023-03-16T08:07:41;94737.56;;;6.96;57.90
46379;BME280;32084;42.254;22.744;2023-03-16T08:10:10;94739.03;;;7.08;56.60
46379;BME280;32084;42.254;22.744;2023-03-16T08:12:38;94745.84;;;7.11;56.49
46379;BME280;32084;42.254;22.744;2023-03-16T08:15:06;94747.09;;;7.16;57.12
46379;BME280;32084;42.254;22.744;2023-03-16T08:17:35;94746.94;;;7.36;58.40
46379;BME280;32084;42.254;22.744;2023-03-16T08:20:06;94749.69;;;7.26;58.24
46379;BME280;32084;42.254;22.744;2023-03-16T08:22:37;94754.31;;;7.24;56.93
46379;BME280;32084;42.254;22.744;2023-03-16T08:25:07;94752.72;;;7.49;56.74
46379;BME280;32084;42.254;22.744;2023-03-16T08:27:36;94756.75;;;7.71;54.74
46379;BME280;32084;42.254;22.744;2023-03-16T08:30:05;94750.06;;;7.49;55.18
46379;BME280;32084;42.254;22.744;2023-03-16T08:32:34;94766.63;;;7.43;54.37
46379;BME280;32084;42.254;22.744;2023-03-16T08:35:06;94756.81;;;7.26;54.79
46379;BME280;32084;42.254;22.744;2023-03-16T08:37:35;94763.22;;;7.33;54.97
46379;BME280;32084;42.254;22.744;2023-03-16T08:40:03;94752.72;;;7.49;54.41
46379;BME280;32084;42.254;22.744;2023-03-16T08:42:36;94760.25;;;7.72;54.82
46379;BME280;32084;42.254;22.744;2023-03-16T08:45:05;94763.59;;;7.74;54.13
46379;BME280;32084;42.254;22.744;2023-03-16T08:47:38;94766.06;;;8.11;53.78
46379;BME280;32084;42.254;22.744;2023-03-16T08:50:09;94765.25;;;8.37;54.19
46379;BME280;32084;42.254;22.744;2023-03-16T08:52:37;94763.69;;;8.52;52.50
46379;BME280;32084;42.254;22.744;2023-03-16T08:55:05;94759.81;;;8.73;52.34
46379;BME280;32084;42.254;22.744;2023-03-16T08:57:34;94761.63;;;8.72;52.60
46379;BME280;32084;42.254;22.744;2023-03-16T09:00:04;94769.00;;;8.78;51.57
46379;BME280;32084;42.254;22.744;2023-03-16T09:02:40;94771.25;;;8.65;51.64
46379;BME280;32084;42.254;22.744;2023-03-16T09:05:09;94767.19;;;8.53;52.79
46379;BME280;32084;42.254;22.744;2023-03-16T09:07:38;94771.72;;;8.60;51.92
46379;BME280;32084;42.254;22.744;2023-03-16T09:10:08;94766.41;;;8.60;53.23
46379;BME280;32084;42.254;22.744;2023-03-16T09:12:38;94768.00;;;8.88;51.19
46379;BME280;32084;42.254;22.744;2023-03-16T09:15:08;94771.59;;;8.70;51.09
46379;BME280;32084;42.254;22.744;2023-03-16T09:17:38;94770.06;;;8.59;52.52
46379;BME280;32084;42.254;22.744;2023-03-16T09:20:09;94760.84;;;8.28;52.46
46379;BME280;32084;42.254;22.744;2023-03-16T09:22:42;94771.16;;;8.31;52.69
46379;BME280;32084;42.254;22.744;2023-03-16T09:25:11;94769.81;;;8.45;52.21
46379;BME280;32084;42.254;22.744;2023-03-16T09:27:38;94767.84;;;8.55;52.40
46379;BME280;32084;42.254;22.744;2023-03-16T09:30:08;94769.13;;;8.43;51.94
46379;BME280;32084;42.254;22.744;2023-03-16T09:32:37;94768.69;;;8.29;53.01
46379;BME280;32084;42.254;22.744;2023-03-16T09:35:05;94767.75;;;8.12;53.01
46379;BME280;32084;42.254;22.744;2023-03-16T09:37:33;94773.16;;;8.02;52.96
46379;BME280;32084;42.254;22.744;2023-03-16T09:40:04;94779.69;;;7.90;53.41
46379;BME280;32084;42.254;22.744;2023-03-16T09:45:05;94777.03;;;8.08;55.20
46379;BME280;32084;42.254;22.744;2023-03-16T09:47:33;94780.31;;;8.28;53.47
46379;BME280;32084;42.254;22.744;2023-03-16T09:50:06;94776.03;;;8.35;54.09
46379;BME280;32084;42.254;22.744;2023-03-16T09:55:25;94787.22;;;8.39;53.18
46379;BME280;32084;42.254;22.744;2023-03-16T09:57:55;94780.53;;;8.35;52.92
46379;BME280;32084;42.254;22.744;2023-03-16T10:00:26;94785.78;;;8.45;52.87
46379;BME280;32084;42.254;22.744;2023-03-16T10:05:25;94778.97;;;8.24;52.11
46379;BME280;32084;42.254;22.744;2023-03-16T10:13:35;94776.44;;;8.23;54.75
46379;BME280;32084;42.254;22.744;2023-03-16T10:16:01;94780.28;;;8.20;53.88
46379;BME280;32084;42.254;22.744;2023-03-16T10:18:32;94778.22;;;8.40;54.13
46379;BME280;32084;42.254;22.744;2023-03-16T10:21:02;94781.16;;;8.81;53.23
46379;BME280;32084;42.254;22.744;2023-03-16T10:23:31;94787.03;;;8.93;52.60
46379;BME280;32084;42.254;22.744;2023-03-16T10:26:02;94786.00;;;8.86;52.35
46379;BME280;32084;42.254;22.744;2023-03-16T10:28:31;94786.81;;;8.78;53.03
46379;BME280;32084;42.254;22.744;2023-03-16T10:30:59;94781.59;;;8.68;53.29
46379;BME280;32084;42.254;22.744;2023-03-16T10:33:31;94788.25;;;8.64;51.94
46379;BME280;32084;42.254;22.744;2023-03-16T10:43:44;94786.75;;;9.04;51.34
46379;BME280;32084;42.254;22.744;2023-03-16T10:46:13;94787.50;;;9.23;49.97
46379;BME280;32084;42.254;22.744;2023-03-16T10:48:56;94785.81;;;9.22;50.79
46379;BME280;32084;42.254;22.744;2023-03-16T10:51:29;94784.69;;;9.24;48.88
46379;BME280;32084;42.254;22.744;2023-03-16T10:56:58;94783.41;;;9.02;49.62
46379;BME280;32084;42.254;22.744;2023-03-16T10:59:29;94786.41;;;8.99;50.55
46379;BME280;32084;42.254;22.744;2023-03-16T11:02:07;94788.38;;;8.97;49.49
46379;BME280;32084;42.254;22.744;2023-03-16T11:04:37;94792.44;;;9.01;49.75
46379;BME280;32084;42.254;22.744;2023-03-16T11:07:05;94784.91;;;8.96;49.60
46379;BME280;32084;42.254;22.744;2023-03-16T11:09:36;94780.38;;;8.89;50.50
46379;BME280;32084;42.254;22.744;2023-03-16T11:12:12;94776.63;;;8.73;51.77
46379;BME280;32084;42.254;22.744;2023-03-16T11:14:42;94780.28;;;8.72;50.75
46379;BME280;32084;42.254;22.744;2023-03-16T11:17:17;94778.50;;;8.81;50.48
46379;BME280;32084;42.254;22.744;2023-03-16T11:22:15;94778.16;;;8.50;51.08
46379;BME280;32084;42.254;22.744;2023-03-16T11:27:21;94773.78;;;8.23;51.72
46379;BME280;32084;42.254;22.744;2023-03-16T11:29:55;94769.25;;;8.15;53.57
46379;BME280;32084;42.254;22.744;2023-03-16T11:32:26;94769.47;;;8.21;52.11
46379;BME280;32084;42.254;22.744;2023-03-16T11:34:58;94771.41;;;7.93;51.95
46379;BME280;32084;42.254;22.744;2023-03-16T11:40:01;94764.72;;;8.33;53.59
46379;BME280;32084;42.254;22.744;2023-03-16T11:42:44;94768.44;;;8.40;52.82
46379;BME280;32084;42.254;22.744;2023-03-16T11:45:24;94774.34;;;8.52;51.11
46379;BME280;32084;42.254;22.744;2023-03-16T12:01:19;94794.41;;;8.65;50.24
46379;BME280;32084;42.254;22.744;2023-03-16T12:08:59;94789.31;;;8.53;49.96
46379;BME280;32084;42.254;22.744;2023-03-16T12:11:29;94796.50;;;8.53;49.45
46379;BME280;32084;42.254;22.744;2023-03-16T12:14:01;94794.63;;;8.45;50.12
46379;BME280;32084;42.254;22.744;2023-03-16T12:16:49;94800.25;;;8.42;50.33
46379;BME280;32084;42.254;22.744;2023-03-16T12:19:33;94796.44;;;8.45;51.08
46379;BME280;32084;42.254;22.744;2023-03-16T12:22:11;94800.25;;;8.42;51.57
46379;BME280;32084;42.254;22.744;2023-03-16T12:24:42;94804.88;;;8.58;51.48
46379;BME280;32084;42.254;22.744;2023-03-16T12:27:23;94806.50;;;8.85;50.80
46379;BME280;32084;42.254;22.744;2023-03-16T12:32:53;94805.94;;;8.73;51.17
46379;BME280;32084;42.254;22.744;2023-03-16T12:46:25;94828.56;;;8.43;52.03
46379;BME280;32084;42.254;22.744;2023-03-16T12:48:57;94846.28;;;8.34;51.07
46379;BME280;32084;42.254;22.744;2023-03-16T12:51:36;94842.78;;;8.34;50.86
46379;BME280;32084;42.254;22.744;2023-03-16T12:57:06;94839.34;;;7.97;51.96
46379;BME280;32084;42.254;22.744;2023-03-16T12:59:39;94845.09;;;7.93;51.72
46379;BME280;32084;42.254;22.744;2023-03-16T13:02:14;94851.50;;;7.82;51.77
46379;BME280;32084;42.254;22.744;2023-03-16T13:04:46;94857.13;;;7.79;51.96
46379;BME280;32084;42.254;22.744;2023-03-16T13:07:16;94858.63;;;7.63;52.82
46379;BME280;32084;42.254;22.744;2023-03-16T13:09:47;94862.44;;;7.61;52.37
46379;BME280;32084;42.254;22.744;2023-03-16T13:12:26;94860.06;;;7.58;52.24
46379;BME280;32084;42.254;22.744;2023-03-16T13:14:55;94857.66;;;7.65;51.34
46379;BME280;32084;42.254;22.744;2023-03-16T13:17:24;94858.16;;;7.50;51.95
46379;BME280;32084;42.254;22.744;2023-03-16T13:22:29;94851.78;;;7.61;51.57
46379;BME280;32084;42.254;22.744;2023-03-16T13:27:43;94872.06;;;7.62;50.67
46379;BME280;32084;42.254;22.744;2023-03-16T13:30:22;94866.00;;;7.70;51.46
46379;BME280;32084;42.254;22.744;2023-03-16T13:32:52;94878.72;;;7.76;51.41
46379;BME280;32084;42.254;22.744;2023-03-16T13:35:20;94881.81;;;7.71;51.10
46379;BME280;32084;42.254;22.744;2023-03-16T13:37:51;94880.53;;;7.75;51.07
46379;BME280;32084;42.254;22.744;2023-03-16T13:42:50;94875.19;;;7.57;52.15
46379;BME280;32084;42.254;22.744;2023-03-16T13:45:32;94883.03;;;7.59;51.19
46379;BME280;32084;42.254;22.744;2023-03-16T13:48:04;94890.84;;;7.60;51.35
46379;BME280;32084;42.254;22.744;2023-03-16T13:50:33;94885.84;;;7.57;51.08
46379;BME280;32084;42.254;22.744;2023-03-16T13:53:03;94886.38;;;7.61;51.58
46379;BME280;32084;42.254;22.744;2023-03-16T13:55:33;94891.44;;;7.54;50.61
46379;BME280;32084;42.254;22.744;2023-03-16T13:58:04;94888.31;;;7.41;51.59
46379;BME280;32084;42.254;22.744;2023-03-16T14:00:34;94892.00;;;7.58;51.69
46379;BME280;32084;42.254;22.744;2023-03-16T14:03:15;94893.75;;;7.67;51.26
46379;BME280;32084;42.254;22.744;2023-03-16T14:05:42;94889.66;;;7.73;51.61
46379;BME280;32084;42.254;22.744;2023-03-16T14:08:19;94902.09;;;7.54;51.35
46379;BME280;32084;42.254;22.744;2023-03-16T14:10:45;94900.81;;;7.58;51.52
46379;BME280;32084;42.254;22.744;2023-03-16T14:15:47;94897.22;;;7.50;51.39
46379;BME280;32084;42.254;22.744;2023-03-16T14:18:13;94894.56;;;7.50;51.63
46379;BME280;32084;42.254;22.744;2023-03-16T14:20:41;94897.59;;;7.55;50.74
46379;BME280;32084;42.254;22.744;2023-03-16T14:23:21;94896.97;;;7.43;51.14
46379;BME280;32084;42.254;22.744;2023-03-16T14:25:49;94902.59;;;7.40;51.64
46379;BME280;32084;42.254;22.744;2023-03-16T14:28:16;94905.56;;;7.37;51.01
46379;BME280;32084;42.254;22.744;2023-03-16T14:30:51;94912.56;;;7.28;51.27
46379;BME280;32084;42.254;22.744;2023-03-16T14:33:30;94915.97;;;7.20;51.24
46379;BME280;32084;42.254;22.744;2023-03-16T14:35:58;94913.63;;;7.17;52.20